Time;durP1;ratioP1;P1;durP2;ratioP2;P2;SDS_P1;SDS_P2;PMS_P1;PMS_P2;Temp;Humidity;BMP_temperature;BMP_pressure;BME280_temperature;BME280_humidity;BME280_pressure;Samples;Min_cycle;Max_cycle;Signal;HPM_P1;HPM_P2
2022/07/12 00:01:16;;;;;;;4.22;0.82;;;;;;;;;;4896041;29;20053;-69
2022/07/12 00:03:46;;;;;;;7.88;1.27;;;;;;;;;;4896231;29;20056;-71
2022/07/12 00:06:16;;;;;;;3.95;1.25;;;;;;;;;;4862455;29;20056;-70
2022/07/12 00:08:47;;;;;;;7.95;1.02;;;;;;;;;;4893493;29;20410;-69
2022/07/12 00:11:18;;;;;;;2.92;1.00;;;;;;;;;;4877679;29;20079;-69
2022/07/12 00:13:47;;;;;;;6.13;1.55;;;;;;;;;;4895400;29;20052;-69
2022/07/12 00:16:17;;;;;;;6.25;0.70;;;;;;;;;;4893723;29;20067;-73
2022/07/12 00:18:47;;;;;;;5.63;1.20;;;;;;;;;;4895856;29;20429;-70
2022/07/12 00:21:18;;;;;;;7.28;2.63;;;;;;;;;;4881301;29;20068;-68
2022/07/12 00:23:48;;;;;;;9.32;1.35;;;;;;;;;;4881361;29;20056;-68
2022/07/12 00:26:18;;;;;;;4.82;1.30;;;;;;;;;;4866051;29;20052;-70
2022/07/12 00:28:48;;;;;;;6.38;1.00;;;;;;;;;;4865762;29;20072;-71
2022/07/12 00:31:20;;;;;;;4.03;0.90;;;;;;;;;;4899063;29;20052;-71
2022/07/12 00:33:50;;;;;;;7.63;1.13;;;;;;;;;;4896794;29;20064;-71
2022/07/12 00:36:20;;;;;;;2.25;1.08;;;;;;;;;;4899093;29;20041;-71
2022/07/12 00:38:51;;;;;;;2.47;0.70;;;;;;;;;;4865621;29;20071;-72
2022/07/12 00:41:20;;;;;;;6.30;0.90;;;;;;;;;;4865759;29;20061;-72
2022/07/12 00:43:51;;;;;;;3.38;0.82;;;;;;;;;;4850973;29;20501;-70
2022/07/12 00:46:25;;;;;;;3.70;0.88;;;;;;;;;;4865759;29;20061;-71
2022/07/12 00:48:55;;;;;;;4.45;0.70;;;;;;;;;;4898526;29;20049;-71
2022/07/12 00:51:25;;;;;;;8.15;0.75;;;;;;;;;;4850658;29;20060;-71
2022/07/12 00:53:58;;;;;;;3.35;0.63;;;;;;;;;;4880752;29;20063;-71
2022/07/12 00:56:30;;;;;;;2.78;0.80;;;;;;;;;;4882049;29;20056;-69
2022/07/12 00:59:00;;;;;;;5.03;0.85;;;;;;;;;;4898685;29;20048;-73
2022/07/12 01:01:30;;;;;;;2.05;0.75;;;;;;;;;;4881074;29;20071;-73
2022/07/12 01:04:02;;;;;;;6.63;0.80;;;;;;;;;;4881140;29;20067;-71
2022/07/12 01:06:33;;;;;;;2.72;0.57;;;;;;;;;;4850552;29;20052;-70
2022/07/12 01:09:06;;;;;;;4.95;1.25;;;;;;;;;;4880803;29;20071;-72
2022/07/12 01:11:36;;;;;;;3.03;0.45;;;;;;;;;;4865734;29;20537;-71
2022/07/12 01:14:07;;;;;;;4.00;0.82;;;;;;;;;;4880862;29;20056;-71
2022/07/12 01:16:38;;;;;;;9.40;0.90;;;;;;;;;;4898412;29;20044;-68
2022/07/12 01:19:17;;;;;;;5.25;1.10;;;;;;;;;;4864931;29;20064;-67
2022/07/12 01:21:51;;;;;;;1.98;0.70;;;;;;;;;;4896181;29;20056;-70
2022/07/12 01:24:21;;;;;;;4.72;0.80;;;;;;;;;;4896101;29;20055;-66
2022/07/12 01:26:52;;;;;;;4.00;1.25;;;;;;;;;;4880708;29;20422;-67
2022/07/12 01:29:23;;;;;;;7.00;1.10;;;;;;;;;;4833733;29;20055;-69
2022/07/12 01:31:52;;;;;;;6.72;0.90;;;;;;;;;;4864875;29;20062;-69
2022/07/12 01:34:22;;;;;;;2.33;0.73;;;;;;;;;;4876632;29;20634;-70
2022/07/12 01:36:52;;;;;;;9.00;0.68;;;;;;;;;;4876954;29;20423;-70
2022/07/12 01:39:22;;;;;;;3.97;0.75;;;;;;;;;;4861735;29;20056;-70
2022/07/12 01:41:53;;;;;;;2.75;1.13;;;;;;;;;;4876904;29;20045;-71
2022/07/12 01:44:23;;;;;;;4.50;0.93;;;;;;;;;;4876920;29;20063;-72
2022/07/12 01:46:53;;;;;;;3.70;0.80;;;;;;;;;;4861259;29;20053;-72
2022/07/12 01:49:23;;;;;;;4.50;1.00;;;;;;;;;;4876753;29;20398;-70
2022/07/12 01:51:56;;;;;;;4.35;1.17;;;;;;;;;;4876581;29;20083;-67
2022/07/12 01:54:28;;;;;;;7.00;1.13;;;;;;;;;;4876495;29;20052;-69
2022/07/12 01:56:58;;;;;;;2.67;1.05;;;;;;;;;;4861722;29;20048;-69
2022/07/12 01:59:29;;;;;;;4.43;1.13;;;;;;;;;;4876454;29;20061;-67
2022/07/12 02:02:00;;;;;;;6.03;0.90;;;;;;;;;;4845464;29;20064;-65
2022/07/12 02:04:31;;;;;;;5.55;0.88;;;;;;;;;;4875620;29;20534;-67
2022/07/12 02:07:01;;;;;;;3.88;1.00;;;;;;;;;;4830433;29;20057;-65
2022/07/12 02:09:31;;;;;;;7.25;1.10;;;;;;;;;;4876098;29;20068;-66
2022/07/12 02:12:01;;;;;;;2.88;1.08;;;;;;;;;;4845761;29;20517;-65
2022/07/12 02:14:32;;;;;;;2.42;0.80;;;;;;;;;;4864480;29;20064;-65
2022/07/12 02:17:01;;;;;;;5.80;1.00;;;;;;;;;;4897337;29;20052;-65
2022/07/12 02:19:31;;;;;;;2.78;0.50;;;;;;;;;;4897044;29;20048;-66
2022/07/12 02:22:01;;;;;;;1.88;0.40;;;;;;;;;;4897187;29;20045;-65
2022/07/12 02:24:31;;;;;;;3.25;0.57;;;;;;;;;;4849217;29;20497;-65
2022/07/12 02:27:01;;;;;;;1.95;0.30;;;;;;;;;;4879659;29;20061;-67
2022/07/12 02:29:32;;;;;;;4.03;0.40;;;;;;;;;;4897283;29;20490;-66
2022/07/12 02:32:02;;;;;;;2.45;0.35;;;;;;;;;;4896941;29;20056;-66
2022/07/12 02:34:32;;;;;;;1.38;0.65;;;;;;;;;;4879500;29;20051;-69
2022/07/12 02:37:02;;;;;;;2.30;0.40;;;;;;;;;;4896763;29;20472;-66
2022/07/12 02:39:32;;;;;;;1.85;0.32;;;;;;;;;;4863503;29;20053;-65
2022/07/12 02:42:02;;;;;;;0.22;0.10;;;;;;;;;;4878646;29;20060;-66
2022/07/12 02:44:33;;;;;;;4.90;0.43;;;;;;;;;;4879800;29;20067;-66
2022/07/12 02:47:03;;;;;;;3.65;0.30;;;;;;;;;;4879180;29;20417;-65
2022/07/12 02:49:33;;;;;;;3.03;0.32;;;;;;;;;;4863551;29;20383;-67
2022/07/12 02:52:04;;;;;;;1.35;0.63;;;;;;;;;;4896773;29;20048;-67
2022/07/12 02:54:34;;;;;;;1.48;0.73;;;;;;;;;;4896914;29;20402;-68
2022/07/12 02:57:04;;;;;;;2.97;0.22;;;;;;;;;;4893978;29;20056;-68
2022/07/12 02:59:34;;;;;;;1.15;0.20;;;;;;;;;;4848083;29;20409;-68
2022/07/12 03:02:05;;;;;;;1.65;0.20;;;;;;;;;;4832617;29;20501;-71
2022/07/12 03:04:35;;;;;;;3.50;0.30;;;;;;;;;;4848174;29;20052;-68
2022/07/12 03:07:05;;;;;;;1.35;0.20;;;;;;;;;;4847302;29;20056;-70
2022/07/12 03:09:35;;;;;;;0.32;0.10;;;;;;;;;;4893856;29;20064;-69
2022/07/12 03:12:07;;;;;;;1.45;0.10;;;;;;;;;;4863169;29;20076;-71
2022/07/12 03:14:37;;;;;;;0.22;0.10;;;;;;;;;;4894208;29;20517;-69
2022/07/12 03:17:06;;;;;;;0.47;0.10;;;;;;;;;;4878015;29;20080;-68
2022/07/12 03:19:36;;;;;;;3.10;0.20;;;;;;;;;;4863194;29;20049;-68
2022/07/12 03:22:06;;;;;;;0.10;0.03;;;;;;;;;;4893767;29;20067;-67
2022/07/12 03:24:36;;;;;;;2.40;0.10;;;;;;;;;;4894214;29;20425;-69
2022/07/12 03:27:07;;;;;;;1.33;0.20;;;;;;;;;;4862662;29;20057;-68
2022/07/12 03:29:39;;;;;;;0.40;0.10;;;;;;;;;;4878892;29;20501;-68
2022/07/12 03:32:09;;;;;;;0.10;0.10;;;;;;;;;;4847549;29;20060;-70
2022/07/12 03:34:40;;;;;;;1.60;0.20;;;;;;;;;;4894815;29;20068;-69
2022/07/12 03:37:10;;;;;;;1.15;0.30;;;;;;;;;;4878691;29;20535;-72
2022/07/12 03:39:39;;;;;;;0.40;0.17;;;;;;;;;;4896217;29;20055;-71
2022/07/12 03:42:11;;;;;;;2.05;0.20;;;;;;;;;;4896169;29;20049;-71
2022/07/12 03:44:41;;;;;;;0.15;0.15;;;;;;;;;;4878635;29;20052;-71
2022/07/12 03:47:11;;;;;;;0.13;0.13;;;;;;;;;;4896167;29;20051;-73
2022/07/12 03:49:41;;;;;;;0.20;0.13;;;;;;;;;;4879246;29;20064;-69
2022/07/12 03:52:11;;;;;;;1.25;0.10;;;;;;;;;;4864380;29;20068;-68
2022/07/12 03:54:41;;;;;;;0.25;0.10;;;;;;;;;;4882387;29;20060;-68
2022/07/12 03:57:14;;;;;;;0.30;0.10;;;;;;;;;;4882586;29;20570;-65
2022/07/12 03:59:45;;;;;;;0.20;0.10;;;;;;;;;;4866762;29;20067;-68
2022/07/12 04:02:16;;;;;;;0.20;0.13;;;;;;;;;;4899966;29;20067;-68
2022/07/12 04:04:46;;;;;;;0.70;0.10;;;;;;;;;;4899661;29;20045;-68
2022/07/12 04:07:16;;;;;;;1.98;0.47;;;;;;;;;;4899668;29;20053;-70
2022/07/12 04:09:46;;;;;;;0.10;0.00;;;;;;;;;;4899589;29;20053;-69
2022/07/12 04:12:16;;;;;;;0.10;0.10;;;;;;;;;;4881961;29;20052;-70
2022/07/12 04:14:46;;;;;;;0.10;0.10;;;;;;;;;;4881751;29;20445;-71
2022/07/12 04:17:16;;;;;;;0.10;0.10;;;;;;;;;;4866588;29;20076;-70
2022/07/12 04:19:46;;;;;;;0.10;0.10;;;;;;;;;;4867027;29;20056;-71
2022/07/12 04:22:16;;;;;;;0.13;0.00;;;;;;;;;;4899471;29;20060;-70
2022/07/12 04:24:46;;;;;;;1.27;0.00;;;;;;;;;;4899437;29;20060;-69
2022/07/12 04:27:16;;;;;;;0.38;0.00;;;;;;;;;;4881606;29;20048;-69
2022/07/12 04:29:46;;;;;;;0.10;0.10;;;;;;;;;;4897038;29;20433;-68
2022/07/12 04:32:16;;;;;;;3.75;0.25;;;;;;;;;;4899403;29;20598;-69
2022/07/12 04:34:46;;;;;;;0.25;0.10;;;;;;;;;;4898999;29;20045;-68
2022/07/12 04:37:16;;;;;;;0.20;0.08;;;;;;;;;;4836626;29;20059;-69
2022/07/12 04:39:46;;;;;;;0.10;0.10;;;;;;;;;;4899150;29;20055;-69
2022/07/12 04:42:16;;;;;;;0.43;0.10;;;;;;;;;;4850550;29;20497;-68
2022/07/12 04:44:46;;;;;;;0.20;0.10;;;;;;;;;;4896959;29;20083;-69
2022/07/12 04:47:16;;;;;;;0.25;0.10;;;;;;;;;;4881018;29;20512;-70
2022/07/12 04:49:46;;;;;;;0.10;0.10;;;;;;;;;;4881515;29;20064;-72
2022/07/12 04:52:16;;;;;;;0.05;0.00;;;;;;;;;;4881717;29;20057;-72
2022/07/12 04:54:47;;;;;;;0.47;0.30;;;;;;;;;;4881039;29;20425;-70
2022/07/12 04:57:18;;;;;;;0.88;0.08;;;;;;;;;;4881187;29;20417;-71
2022/07/12 04:59:47;;;;;;;0.35;0.10;;;;;;;;;;4898627;29;20048;-71
2022/07/12 05:02:17;;;;;;;1.35;0.10;;;;;;;;;;4896560;29;20060;-67
2022/07/12 05:04:47;;;;;;;0.40;0.20;;;;;;;;;;4897893;29;20059;-68
2022/07/12 05:07:17;;;;;;;0.08;0.08;;;;;;;;;;4881596;29;20102;-67
2022/07/12 05:09:47;;;;;;;0.30;0.10;;;;;;;;;;4877647;29;20426;-71
2022/07/12 05:12:18;;;;;;;0.28;0.10;;;;;;;;;;4861929;29;20521;-70
2022/07/12 05:14:48;;;;;;;0.43;0.20;;;;;;;;;;4862431;29;20415;-71
2022/07/12 05:17:18;;;;;;;0.10;0.10;;;;;;;;;;4879660;29;20060;-72
2022/07/12 05:19:51;;;;;;;0.30;0.10;;;;;;;;;;4879546;29;20053;-71
2022/07/12 05:22:21;;;;;;;0.55;0.10;;;;;;;;;;4879707;29;20064;-70
2022/07/12 05:24:51;;;;;;;0.35;0.10;;;;;;;;;;4879445;29;20056;-71
2022/07/12 05:27:20;;;;;;;0.60;0.13;;;;;;;;;;4879848;29;20398;-69
2022/07/12 05:29:51;;;;;;;0.10;0.10;;;;;;;;;;4877155;29;20061;-68
2022/07/12 05:32:23;;;;;;;0.10;0.10;;;;;;;;;;4879442;29;20049;-70
2022/07/12 05:34:53;;;;;;;0.65;0.10;;;;;;;;;;4861768;29;20438;-70
2022/07/12 05:37:25;;;;;;;1.25;0.20;;;;;;;;;;4830945;29;20490;-71
2022/07/12 05:39:56;;;;;;;2.83;0.13;;;;;;;;;;4877325;29;20526;-71
2022/07/12 05:42:26;;;;;;;0.75;0.10;;;;;;;;;;4846756;29;20068;-71
2022/07/12 05:44:56;;;;;;;0.57;0.00;;;;;;;;;;4878982;29;20495;-73
2022/07/12 05:47:26;;;;;;;0.25;0.15;;;;;;;;;;4861886;29;20057;-71
2022/07/12 05:50:05;;;;;;;0.25;0.20;;;;;;;;;;4877431;29;20088;-71
2022/07/12 05:55:24;;;;;;;1.20;0.20;;;;;;;;;;4879136;29;20049;-71
2022/07/12 05:57:54;;;;;;;0.93;0.20;;;;;;;;;;4830768;29;20521;-70
2022/07/12 06:00:24;;;;;;;0.20;0.10;;;;;;;;;;4878618;29;20049;-70
2022/07/12 06:02:54;;;;;;;0.32;0.20;;;;;;;;;;4845759;29;20057;-69
2022/07/12 06:05:25;;;;;;;0.30;0.17;;;;;;;;;;4878769;29;20045;-69
2022/07/12 06:07:55;;;;;;;0.40;0.20;;;;;;;;;;4878887;29;20048;-69
2022/07/12 06:10:25;;;;;;;1.73;0.10;;;;;;;;;;4876479;29;20065;-70
2022/07/12 06:12:55;;;;;;;0.75;0.20;;;;;;;;;;4879011;29;20040;-69
2022/07/12 06:15:25;;;;;;;0.43;0.10;;;;;;;;;;4878674;29;20483;-70
2022/07/12 06:18:03;;;;;;;0.13;0.13;;;;;;;;;;4845575;29;20064;-70
2022/07/12 06:20:33;;;;;;;0.20;0.10;;;;;;;;;;4878612;29;20045;-69
2022/07/12 06:23:02;;;;;;;0.10;0.10;;;;;;;;;;4861170;29;20060;-69
2022/07/12 06:25:32;;;;;;;2.17;0.20;;;;;;;;;;4876289;29;20482;-68
2022/07/12 06:28:12;;;;;;;0.65;0.17;;;;;;;;;;4876595;29;20056;-68
2022/07/12 06:30:43;;;;;;;2.80;0.47;;;;;;;;;;4861346;29;20443;-70
2022/07/12 06:33:13;;;;;;;1.35;0.10;;;;;;;;;;4845791;29;20053;-70
2022/07/12 06:35:43;;;;;;;0.90;0.10;;;;;;;;;;4860606;29;20057;-71
2022/07/12 06:38:13;;;;;;;1.35;0.60;;;;;;;;;;4878472;29;20056;-69
2022/07/12 06:40:43;;;;;;;1.65;0.15;;;;;;;;;;4860618;29;20068;-69
2022/07/12 06:43:13;;;;;;;2.60;0.20;;;;;;;;;;4876218;29;20064;-72
2022/07/12 06:45:44;;;;;;;1.08;0.10;;;;;;;;;;4877974;29;20049;-72
2022/07/12 06:48:14;;;;;;;1.08;0.20;;;;;;;;;;4891617;29;20060;-71
2022/07/12 06:50:45;;;;;;;0.47;0.28;;;;;;;;;;4860307;29;20049;-70
2022/07/12 06:53:15;;;;;;;0.75;0.22;;;;;;;;;;4878063;29;20056;-71
2022/07/12 06:55:45;;;;;;;0.88;0.20;;;;;;;;;;4891200;29;20061;-70
2022/07/12 06:58:15;;;;;;;1.10;0.20;;;;;;;;;;4878067;29;20041;-70
2022/07/12 07:00:45;;;;;;;0.93;0.30;;;;;;;;;;4891450;29;20052;-70
2022/07/12 07:03:15;;;;;;;3.53;0.28;;;;;;;;;;4878139;29;20482;-70
2022/07/12 07:05:45;;;;;;;1.25;0.10;;;;;;;;;;4876127;29;20083;-70
2022/07/12 07:08:15;;;;;;;0.82;0.20;;;;;;;;;;4845331;29;20061;-69
2022/07/12 07:10:45;;;;;;;0.65;0.30;;;;;;;;;;4844797;29;20068;-70
2022/07/12 07:13:15;;;;;;;0.95;0.22;;;;;;;;;;4877642;29;21039;-69
2022/07/12 07:15:45;;;;;;;1.13;0.30;;;;;;;;;;4860179;29;20056;-70
2022/07/12 07:18:15;;;;;;;1.17;0.32;;;;;;;;;;4844573;29;20049;-70
2022/07/12 07:20:46;;;;;;;0.50;0.25;;;;;;;;;;4860620;29;20065;-70
2022/07/12 07:23:16;;;;;;;1.77;0.30;;;;;;;;;;4891258;29;20532;-70
2022/07/12 07:25:49;;;;;;;0.25;0.20;;;;;;;;;;4860107;29;20502;-71
2022/07/12 07:28:20;;;;;;;2.08;0.30;;;;;;;;;;4883674;29;20052;-71
2022/07/12 07:31:10;;;;;;;0.20;0.20;;;;;;;;;;4883779;29;20049;-71
2022/07/12 07:33:40;;;;;;;1.50;0.38;;;;;;;;;;4850940;29;20065;-70
2022/07/12 07:36:10;;;;;;;0.13;0.13;;;;;;;;;;4883847;29;20045;-70
2022/07/12 07:38:40;;;;;;;0.20;0.20;;;;;;;;;;4884052;29;20044;-71
2022/07/12 07:41:11;;;;;;;1.30;0.30;;;;;;;;;;4883816;29;20076;-72
2022/07/12 07:43:41;;;;;;;0.10;0.10;;;;;;;;;;4884029;29;20414;-71
2022/07/12 07:46:11;;;;;;;1.58;0.20;;;;;;;;;;4897532;29;20068;-69
2022/07/12 07:48:41;;;;;;;0.52;0.20;;;;;;;;;;4883553;29;20069;-70
2022/07/12 07:51:11;;;;;;;0.35;0.17;;;;;;;;;;4883808;29;20434;-70
2022/07/12 07:53:41;;;;;;;0.30;0.20;;;;;;;;;;4850916;29;20473;-70
2022/07/12 07:56:11;;;;;;;2.85;0.20;;;;;;;;;;4865901;29;20521;-70
2022/07/12 07:58:41;;;;;;;3.53;0.40;;;;;;;;;;4883340;29;20048;-69
2022/07/12 08:01:11;;;;;;;0.20;0.20;;;;;;;;;;4883550;29;20045;-69
2022/07/12 08:03:40;;;;;;;3.47;0.30;;;;;;;;;;4883638;29;20049;-69
2022/07/12 08:06:11;;;;;;;0.95;0.20;;;;;;;;;;4866150;29;20406;-69
2022/07/12 08:08:40;;;;;;;0.22;0.15;;;;;;;;;;4883614;29;20081;-72
2022/07/12 08:11:31;;;;;;;0.20;0.20;;;;;;;;;;4881831;29;20068;-70
2022/07/12 08:14:02;;;;;;;1.25;0.20;;;;;;;;;;4881579;29;20056;-73
2022/07/12 08:16:33;;;;;;;0.35;0.30;;;;;;;;;;4883409;29;20406;-72
2022/07/12 08:19:04;;;;;;;0.98;0.20;;;;;;;;;;4850698;29;20057;-72
2022/07/12 08:21:35;;;;;;;1.02;0.32;;;;;;;;;;4881354;29;20060;-72
2022/07/12 08:24:05;;;;;;;0.35;0.20;;;;;;;;;;4881409;29;20505;-70
2022/07/12 08:26:35;;;;;;;0.32;0.20;;;;;;;;;;4896777;29;20055;-69
2022/07/12 08:29:05;;;;;;;1.55;0.40;;;;;;;;;;4883463;29;20577;-71
2022/07/12 08:31:36;;;;;;;0.30;0.20;;;;;;;;;;4865905;29;20064;-70
2022/07/12 08:34:06;;;;;;;0.35;0.22;;;;;;;;;;4883258;29;20052;-70
2022/07/12 08:36:36;;;;;;;0.30;0.20;;;;;;;;;;4883251;29;20562;-69
2022/07/12 08:39:06;;;;;;;0.30;0.30;;;;;;;;;;4877916;29;20053;-70
2022/07/12 08:41:36;;;;;;;0.75;0.20;;;;;;;;;;4880600;29;20063;-70
2022/07/12 08:44:06;;;;;;;0.70;0.30;;;;;;;;;;4862652;29;20057;-70
2022/07/12 08:46:36;;;;;;;1.10;0.32;;;;;;;;;;4862845;29;20083;-70
2022/07/12 08:49:09;;;;;;;0.38;0.20;;;;;;;;;;4893404;29;20076;-70
2022/07/12 08:51:40;;;;;;;0.32;0.25;;;;;;;;;;4880127;29;20060;-70
2022/07/12 08:54:12;;;;;;;1.83;0.30;;;;;;;;;;4847429;29;20053;-71
2022/07/12 08:56:44;;;;;;;0.75;0.30;;;;;;;;;;4878198;29;20466;-69
2022/07/12 08:59:19;;;;;;;1.13;0.40;;;;;;;;;;4879878;29;20494;-70
2022/07/12 09:01:54;;;;;;;0.55;0.32;;;;;;;;;;4862630;29;20057;-69
2022/07/12 09:04:27;;;;;;;3.88;0.30;;;;;;;;;;4847449;29;20052;-69
2022/07/12 09:07:13;;;;;;;1.02;0.30;;;;;;;;;;4847022;29;20422;-70
2022/07/12 09:09:43;;;;;;;1.67;0.30;;;;;;;;;;4885919;29;20425;-70
2022/07/12 09:12:36;;;;;;;1.38;0.40;;;;;;;;;;4898636;29;20048;-70
2022/07/12 09:15:12;;;;;;;0.50;0.30;;;;;;;;;;4852229;29;20517;-70
2022/07/12 09:18:14;;;;;;;0.90;0.43;;;;;;;;;;4898271;29;20048;-70
2022/07/12 09:20:52;;;;;;;1.10;0.30;;;;;;;;;;4807226;29;20065;-70
2022/07/12 09:23:22;;;;;;;0.73;0.30;;;;;;;;;;4822143;29;20093;-69
2022/07/12 09:25:52;;;;;;;0.65;0.22;;;;;;;;;;4821993;29;20115;-70
2022/07/12 09:28:22;;;;;;;1.00;0.32;;;;;;;;;;4821999;29;20070;-69
2022/07/12 09:30:54;;;;;;;1.30;0.45;;;;;;;;;;4821883;29;20073;-71
2022/07/12 09:36:13;;;;;;;0.68;0.45;;;;;;;;;;4806628;29;20496;-69
2022/07/12 09:38:45;;;;;;;0.80;0.30;;;;;;;;;;4822114;29;20062;-70
2022/07/12 09:41:20;;;;;;;1.15;0.65;;;;;;;;;;4821527;29;20054;-70
2022/07/12 09:43:51;;;;;;;0.60;0.30;;;;;;;;;;4806674;29;20058;-68
2022/07/12 09:46:21;;;;;;;0.45;0.20;;;;;;;;;;4791597;29;20083;-69
2022/07/12 09:48:52;;;;;;;0.90;0.40;;;;;;;;;;4788708;29;20063;-68
2022/07/12 09:51:24;;;;;;;0.63;0.55;;;;;;;;;;4802984;29;20059;-69
2022/07/12 09:53:59;;;;;;;1.20;0.43;;;;;;;;;;4773753;29;20067;-69
2022/07/12 09:56:33;;;;;;;0.82;0.40;;;;;;;;;;4803464;29;20050;-70
2022/07/12 09:59:08;;;;;;;2.75;0.40;;;;;;;;;;4895463;29;20055;-69
2022/07/12 10:01:39;;;;;;;1.60;0.25;;;;;;;;;;4895413;29;20064;-69
2022/07/12 10:04:10;;;;;;;0.55;0.28;;;;;;;;;;4895049;29;20061;-69
2022/07/12 10:06:41;;;;;;;0.70;0.30;;;;;;;;;;4863863;29;20064;-69
2022/07/12 10:09:11;;;;;;;0.47;0.35;;;;;;;;;;4895191;29;20056;-69
2022/07/12 10:11:42;;;;;;;0.80;0.43;;;;;;;;;;4895078;29;20064;-69
2022/07/12 10:14:32;;;;;;;1.58;0.40;;;;;;;;;;4857024;29;20138;-68
2022/07/12 10:17:08;;;;;;;1.38;0.40;;;;;;;;;;4864879;29;20071;-67
2022/07/12 10:19:39;;;;;;;1.40;0.50;;;;;;;;;;4875754;29;20498;-67
2022/07/12 10:22:23;;;;;;;1.15;0.30;;;;;;;;;;4830294;29;20061;-69
2022/07/12 10:24:54;;;;;;;1.13;0.47;;;;;;;;;;4876060;29;20068;-67
2022/07/12 10:27:29;;;;;;;;;;;;;;;;;;4877963;29;20079;-68
2022/07/12 10:30:19;;;;;;;0.70;0.40;;;;;;;;;;4848244;29;19939;-67
2022/07/12 10:32:53;;;;;;;1.50;0.50;;;;;;;;;;4879499;29;20057;-68
2022/07/12 10:35:28;;;;;;;2.83;0.40;;;;;;;;;;4894625;29;20117;-68
2022/07/12 10:38:16;;;;;;;2.55;0.57;;;;;;;;;;4848329;29;20514;-68
2022/07/12 10:40:47;;;;;;;2.88;0.50;;;;;;;;;;4847864;29;20056;-70
2022/07/12 10:43:21;;;;;;;0.52;0.30;;;;;;;;;;4894539;29;20041;-68
2022/07/12 10:45:52;;;;;;;1.50;0.60;;;;;;;;;;4848542;29;20064;-68
2022/07/12 10:48:23;;;;;;;1.67;0.55;;;;;;;;;;4863248;29;20064;-69
2022/07/12 10:50:56;;;;;;;1.25;0.60;;;;;;;;;;4886146;29;20055;-68
2022/07/12 10:53:38;;;;;;;2.00;0.63;;;;;;;;;;4896795;29;20052;-68
2022/07/12 10:56:19;;;;;;;1.48;0.70;;;;;;;;;;4896837;29;20409;-68
2022/07/12 10:58:59;;;;;;;2.67;0.60;;;;;;;;;;4833001;29;20052;-68
2022/07/12 11:01:31;;;;;;;1.88;0.60;;;;;;;;;;4879017;29;20064;-70
2022/07/12 11:04:07;;;;;;;3.63;0.82;;;;;;;;;;4879154;29;20437;-67
2022/07/12 11:06:42;;;;;;;1.60;0.68;;;;;;;;;;4863500;29;20060;-69
2022/07/12 11:09:16;;;;;;;1.48;0.60;;;;;;;;;;4894816;29;20564;-70
2022/07/12 11:11:49;;;;;;;1.27;0.60;;;;;;;;;;4878872;29;20517;-72
2022/07/12 11:14:30;;;;;;;0.75;0.50;;;;;;;;;;4896726;29;20052;-71
2022/07/12 11:17:01;;;;;;;2.70;0.40;;;;;;;;;;4896376;29;20055;-71
2022/07/12 11:19:32;;;;;;;0.90;0.30;;;;;;;;;;4896263;29;20063;-69
2022/07/12 11:22:02;;;;;;;0.60;0.30;;;;;;;;;;4896282;29;20052;-69
2022/07/12 11:24:34;;;;;;;0.88;0.28;;;;;;;;;;4896357;29;20045;-71
2022/07/12 11:27:06;;;;;;;1.40;0.52;;;;;;;;;;4896816;29;20060;-70
2022/07/12 11:29:38;;;;;;;1.23;0.20;;;;;;;;;;4896121;29;20044;-71
2022/07/12 11:32:08;;;;;;;0.38;0.20;;;;;;;;;;4896142;29;20055;-71
2022/07/12 11:34:39;;;;;;;0.40;0.20;;;;;;;;;;4879340;29;20056;-70
2022/07/12 11:37:10;;;;;;;0.77;0.30;;;;;;;;;;4894096;29;20056;-70
2022/07/12 11:39:41;;;;;;;0.60;0.30;;;;;;;;;;4896054;29;20056;-69
2022/07/12 11:42:11;;;;;;;0.77;0.30;;;;;;;;;;4896119;29;20067;-69
2022/07/12 11:44:51;;;;;;;0.28;0.20;;;;;;;;;;4863315;29;20076;-69
2022/07/12 11:47:23;;;;;;;0.88;0.32;;;;;;;;;;4894364;29;20529;-68
2022/07/12 11:49:55;;;;;;;0.40;0.20;;;;;;;;;;4896172;29;20597;-69
2022/07/12 11:52:26;;;;;;;0.52;0.30;;;;;;;;;;4893959;29;20072;-70
2022/07/12 11:54:55;;;;;;;1.40;0.20;;;;;;;;;;4896461;29;20045;-70
2022/07/12 11:57:25;;;;;;;0.40;0.25;;;;;;;;;;4878948;29;20059;-69
2022/07/12 11:59:55;;;;;;;0.77;0.43;;;;;;;;;;4896094;29;20049;-69
2022/07/12 12:02:29;;;;;;;0.22;0.20;;;;;;;;;;4895807;29;20052;-70
2022/07/12 12:04:59;;;;;;;2.22;0.20;;;;;;;;;;4863369;29;20068;-71
2022/07/12 12:07:29;;;;;;;0.52;0.30;;;;;;;;;;4878255;29;20072;-69
2022/07/12 12:10:17;;;;;;;0.88;0.70;;;;;;;;;;4895936;29;20053;-70
2022/07/12 12:12:55;;;;;;;2.20;0.40;;;;;;;;;;4896733;29;20051;-69
2022/07/12 12:15:27;;;;;;;0.40;0.30;;;;;;;;;;4848688;29;20045;-68
2022/07/12 12:17:59;;;;;;;0.52;0.25;;;;;;;;;;4825696;29;20046;-69
2022/07/12 12:20:31;;;;;;;0.60;0.30;;;;;;;;;;4811024;29;20049;-72
2022/07/12 12:23:04;;;;;;;1.30;0.30;;;;;;;;;;4841391;29;20054;-69
2022/07/12 12:25:35;;;;;;;3.17;0.30;;;;;;;;;;4840898;29;20057;-69
2022/07/12 12:28:06;;;;;;;0.98;0.70;;;;;;;;;;4822488;29;20159;-68
2022/07/12 12:30:54;;;;;;;0.63;0.30;;;;;;;;;;4822754;29;20069;-69
2022/07/12 12:33:36;;;;;;;1.60;0.50;;;;;;;;;;4822760;29;20054;-69
2022/07/12 12:36:20;;;;;;;2.58;0.30;;;;;;;;;;4791978;29;20051;-68
2022/07/12 12:38:56;;;;;;;0.73;0.20;;;;;;;;;;4822582;29;20054;-68
2022/07/12 12:41:28;;;;;;;3.92;0.30;;;;;;;;;;4803913;29;20097;-69
2022/07/12 12:44:04;;;;;;;0.45;0.30;;;;;;;;;;4804442;29;20417;-69
2022/07/12 12:49:52;;;;;;;0.90;0.30;;;;;;;;;;4785960;29;20062;-68
2022/07/12 12:52:27;;;;;;;0.82;0.32;;;;;;;;;;4790436;29;20066;-68
2022/07/12 12:54:58;;;;;;;3.17;0.40;;;;;;;;;;4789999;29;20500;-68
2022/07/12 12:57:29;;;;;;;2.47;0.28;;;;;;;;;;4753145;30;20059;-69
2022/07/12 13:00:00;;;;;;;3.30;0.95;;;;;;;;;;4746723;30;20052;-68
2022/07/12 13:02:30;;;;;;;2.72;1.20;;;;;;;;;;4746752;30;20068;-68
2022/07/12 13:05:03;;;;;;;1.33;0.50;;;;;;;;;;4742966;30;20057;-68
2022/07/12 13:07:33;;;;;;;1.60;0.50;;;;;;;;;;4729517;30;20061;-69
2022/07/12 13:10:04;;;;;;;2.63;0.68;;;;;;;;;;4764246;30;20427;-69
2022/07/12 13:12:34;;;;;;;4.57;1.13;;;;;;;;;;4750592;30;20451;-69
2022/07/12 13:15:07;;;;;;;2.72;0.50;;;;;;;;;;4720529;30;20434;-69
2022/07/12 13:17:38;;;;;;;1.23;0.93;;;;;;;;;;4750021;30;20067;-68
2022/07/12 13:20:09;;;;;;;1.25;0.60;;;;;;;;;;4702525;30;20439;-67
2022/07/12 13:22:42;;;;;;;2.47;0.98;;;;;;;;;;4715910;30;20548;-69
2022/07/12 13:25:15;;;;;;;4.30;1.58;;;;;;;;;;4748762;30;20445;-68
2022/07/12 13:27:46;;;;;;;1.15;0.52;;;;;;;;;;4746605;30;20538;-69
2022/07/12 13:30:17;;;;;;;1.63;0.50;;;;;;;;;;4749618;30;20052;-69
2022/07/12 13:32:48;;;;;;;10.55;3.88;;;;;;;;;;4744730;30;20058;-68
2022/07/12 13:35:19;;;;;;;29.80;10.57;;;;;;;;;;4777690;30;20063;-68
2022/07/12 13:37:49;;;;;;;2.90;1.45;;;;;;;;;;4775603;30;20059;-70
2022/07/12 13:40:24;;;;;;;3.22;0.80;;;;;;;;;;4767718;30;20086;-68
2022/07/12 13:42:54;;;;;;;4.95;0.60;;;;;;;;;;4766984;30;20451;-69
2022/07/12 13:45:26;;;;;;;1.33;0.40;;;;;;;;;;4767359;30;20047;-67
2022/07/12 13:47:57;;;;;;;0.93;0.50;;;;;;;;;;4757180;30;20206;-68
2022/07/12 13:50:27;;;;;;;1.80;0.90;;;;;;;;;;4752737;30;20529;-68
2022/07/12 13:53:01;;;;;;;2.40;0.68;;;;;;;;;;4759185;29;20066;-69
2022/07/12 13:55:34;;;;;;;4.65;1.38;;;;;;;;;;4803257;29;20458;-69
2022/07/12 13:58:07;;;;;;;2.10;0.77;;;;;;;;;;4784995;30;20393;-69
2022/07/12 14:00:38;;;;;;;3.00;0.77;;;;;;;;;;4785034;30;20059;-68
2022/07/12 14:03:09;;;;;;;2.33;1.42;;;;;;;;;;4785231;30;20436;-68
2022/07/12 14:05:40;;;;;;;9.82;4.93;;;;;;;;;;4784882;30;20062;-67
2022/07/12 14:08:12;;;;;;;2.40;0.77;;;;;;;;;;4806598;29;20126;-68
2022/07/12 14:10:42;;;;;;;1.58;0.70;;;;;;;;;;4839255;29;20069;-68
2022/07/12 14:13:13;;;;;;;1.38;0.70;;;;;;;;;;4820896;29;20058;-67
2022/07/12 14:15:45;;;;;;;2.22;1.00;;;;;;;;;;4769537;30;20070;-70
2022/07/12 14:18:16;;;;;;;0.85;0.38;;;;;;;;;;4785075;30;20092;-68
2022/07/12 14:20:46;;;;;;;1.20;0.60;;;;;;;;;;4784718;30;20415;-69
2022/07/12 14:23:17;;;;;;;1.75;0.68;;;;;;;;;;4780109;29;20058;-68
2022/07/12 14:25:47;;;;;;;4.60;0.80;;;;;;;;;;4802997;29;20067;-69
2022/07/12 14:28:18;;;;;;;2.72;1.20;;;;;;;;;;4768375;29;20065;-69
2022/07/12 14:30:48;;;;;;;2.08;0.60;;;;;;;;;;4821175;29;20073;-69
2022/07/12 14:33:18;;;;;;;1.80;0.70;;;;;;;;;;4821422;29;20050;-69
2022/07/12 14:35:48;;;;;;;3.67;1.05;;;;;;;;;;4815103;29;20468;-69
2022/07/12 14:38:19;;;;;;;1.90;0.88;;;;;;;;;;4838584;29;20062;-70
2022/07/12 14:40:49;;;;;;;7.07;0.80;;;;;;;;;;4838924;29;20065;-69
2022/07/12 14:43:20;;;;;;;2.35;0.80;;;;;;;;;;4838950;29;20050;-69
2022/07/12 14:45:50;;;;;;;1.50;0.57;;;;;;;;;;4838873;29;20454;-69
2022/07/12 14:48:20;;;;;;;4.20;1.00;;;;;;;;;;4838931;29;20061;-70
2022/07/12 14:50:51;;;;;;;2.08;0.75;;;;;;;;;;4835857;29;20061;-69
2022/07/12 14:53:22;;;;;;;3.35;0.90;;;;;;;;;;4886218;29;20540;-70
2022/07/12 14:55:52;;;;;;;1.35;0.70;;;;;;;;;;4863732;29;20520;-70
2022/07/12 14:58:24;;;;;;;1.02;0.55;;;;;;;;;;4896794;29;20052;-71
2022/07/12 15:00:55;;;;;;;0.55;0.38;;;;;;;;;;4896535;29;20065;-69
2022/07/12 15:03:26;;;;;;;0.80;0.40;;;;;;;;;;4863877;29;20521;-69
2022/07/12 15:05:57;;;;;;;0.80;0.40;;;;;;;;;;4879111;29;20067;-70
2022/07/12 15:08:28;;;;;;;0.90;0.40;;;;;;;;;;4863706;29;20056;-69
2022/07/12 15:10:58;;;;;;;0.57;0.40;;;;;;;;;;4896630;29;20060;-67
2022/07/12 15:13:31;;;;;;;4.45;0.75;;;;;;;;;;4848570;29;20061;-69
2022/07/12 15:16:02;;;;;;;2.45;0.73;;;;;;;;;;4896524;29;20053;-68
2022/07/12 15:18:32;;;;;;;0.77;0.40;;;;;;;;;;4896304;29;20055;-69